Marion Center, PA

1:30 AM EDT on March 31, 2015 (GMT -0400)
Clearfield-Lawrence | | Change Station
CLOSE
Current Station
Airport
Location: Clearfield,
Elevation: 1516 ft
Nearby Weather Stations

Elev 1516 ft 41.05 °N, 78.41 °W | Updated 36 minutes ago

Mostly Cloudy
Mostly Cloudy
39 °F
Feels Like 32 °F
N
10
Wind Variable Wind from NW

Today
High -- | Low -- °F
--% Chance of Precip.
Yesterday
High -- | Low -- °F
Precip. -- in
7:01 AM 7:39 PM
Waxing Gibbous, 84% visible
Pressure 29.94 in
Visibility 10.0 miles
Clouds Overcast 7000 ft
Windchill 32 °F
Dew Point 26 °F
Humidity 60%
Rainfall 0.00 in
Snow Depth Not available.
UV 0 out of 12
Pollen 11.10 out of 12
Air Quality Not available.
Flu Activity Not available.
METAR KFIG 310454Z AUTO 32009KT 10SM OVC070 04/M03 A2991 RMK AO2 SLP136 T00391033 400940006

More Conditions Fewer Conditions

Pressure 29.94 in
Visibility 10.0 miles
Clouds Overcast 7000 ft
Windchill 32 °F
Dew Point 26 °F
Humidity 60%
Rainfall 0.00 in
Snow Depth Not available.
UV 0 out of 12
Pollen 11.10 out of 12
Air Quality Not available.
Flu Activity Not available.
METAR KFIG 310454Z AUTO 32009KT 10SM OVC070 04/M03 A2991 RMK AO2 SLP136 T00391033 400940006

More Conditions Fewer Conditions

10-Day Weather Forecast

Almanac

Astronomy

Mar. 31, 2015 Rise Set
Actual Time
Civil Twilight
Nautical Twilight
Astronomical Twilight
Moon
Length of Visible Light
Length of Day
Tomorrow will be .
, % of the Moon is Illuminated

Today's Extremes

State Highs State Lows

Community

WunderPhotos

Upload Photos

1,809,724 photos uploaded!

WunderBlogs® & News

Nearby

Air Quality

  Air Quality AQ Index Pollutant
Not available.

Snow Depth

Station Depth Elevation

Earthquake Activity

City Distance Mag. Time & Date
Minimum magnitude displayed is 2.5.

Coastal Water Temperatures

Place Temperature

Stations

Nearby Weather Stations

Station Location Temp. Windchill Dew Point Humidity Wind Precip. Elev Updated Type